Lingle, Wyoming
Current Conditions -  °F | °C
As of 12:53 AM on Monday 24 Nov 2014 (Local Time) from KTOR Reporting Station
Clear Clear  
Wind Chill: -6°   Ceiling: Unl
Heat Index: -6°   Visibility: 10mi
Dew Point: -10°   Wind: 3mph
Humidity: 72%   Direction: NA
Pressure: 29.81"   Gusts: NA
Location:  42.14°N, 104.35°W
Report Text: KTOR 240753Z AUTO VRB03KT 10SM CLR M06/M10 A2981 RMK AO2 SLP117 T10561100
Loading
Personal Weather Stations






























Interactive Weather Map New forecast layout! Learn more

10-Day Weather Forecast

Advertisements
Track Severe Weather on mobile